sensor_id;sensor_type;location;lat;lon;timestamp;P1;durP1;ratioP1;P2;durP2;ratioP2
50683;SDS011;36654;45.042;38.994;2022-10-31T00:00:48;4.80;;;3.58;;
50683;SDS011;36654;45.042;38.994;2022-10-31T00:03:14;4.40;;;3.80;;
50683;SDS011;36654;45.042;38.994;2022-10-31T00:05:47;4.15;;;3.33;;
50683;SDS011;36654;45.042;38.994;2022-10-31T00:08:14;4.68;;;3.55;;
50683;SDS011;36654;45.042;38.994;2022-10-31T00:10:41;5.38;;;3.70;;
50683;SDS011;36654;45.042;38.994;2022-10-31T00:13:08;4.95;;;3.67;;
50683;SDS011;36654;45.042;38.994;2022-10-31T00:15:34;5.40;;;3.60;;
50683;SDS011;36654;45.042;38.994;2022-10-31T00:18:04;4.93;;;3.42;;
50683;SDS011;36654;45.042;38.994;2022-10-31T00:20:31;5.53;;;4.10;;
50683;SDS011;36654;45.042;38.994;2022-10-31T00:22:57;4.60;;;3.38;;
50683;SDS011;36654;45.042;38.994;2022-10-31T00:25:24;4.00;;;3.60;;
50683;SDS011;36654;45.042;38.994;2022-10-31T00:27:50;4.40;;;3.40;;
50683;SDS011;36654;45.042;38.994;2022-10-31T00:30:15;5.18;;;3.75;;
50683;SDS011;36654;45.042;38.994;2022-10-31T00:32:41;5.60;;;3.60;;
50683;SDS011;36654;45.042;38.994;2022-10-31T00:35:07;5.22;;;3.80;;
50683;SDS011;36654;45.042;38.994;2022-10-31T00:37:32;4.88;;;4.18;;
50683;SDS011;36654;45.042;38.994;2022-10-31T00:39:58;6.63;;;3.80;;
50683;SDS011;36654;45.042;38.994;2022-10-31T00:42:24;5.35;;;3.50;;
50683;SDS011;36654;45.042;38.994;2022-10-31T00:44:49;5.38;;;3.50;;
50683;SDS011;36654;45.042;38.994;2022-10-31T00:47:15;3.67;;;3.20;;
50683;SDS011;36654;45.042;38.994;2022-10-31T00:49:40;5.07;;;3.70;;
50683;SDS011;36654;45.042;38.994;2022-10-31T00:52:06;5.05;;;3.55;;
50683;SDS011;36654;45.042;38.994;2022-10-31T00:54:31;5.68;;;4.10;;
50683;SDS011;36654;45.042;38.994;2022-10-31T00:56:57;6.55;;;4.53;;
50683;SDS011;36654;45.042;38.994;2022-10-31T00:59:23;6.30;;;5.30;;
50683;SDS011;36654;45.042;38.994;2022-10-31T01:01:48;6.80;;;4.40;;
50683;SDS011;36654;45.042;38.994;2022-10-31T01:04:14;6.82;;;4.53;;
50683;SDS011;36654;45.042;38.994;2022-10-31T01:06:40;7.57;;;4.78;;
50683;SDS011;36654;45.042;38.994;2022-10-31T01:09:05;7.20;;;4.28;;
50683;SDS011;36654;45.042;38.994;2022-10-31T01:11:31;4.95;;;3.58;;
50683;SDS011;36654;45.042;38.994;2022-10-31T01:13:57;4.95;;;3.90;;
50683;SDS011;36654;45.042;38.994;2022-10-31T01:16:23;6.47;;;3.83;;
50683;SDS011;36654;45.042;38.994;2022-10-31T01:18:51;4.32;;;3.42;;
50683;SDS011;36654;45.042;38.994;2022-10-31T01:21:18;4.85;;;3.05;;
50683;SDS011;36654;45.042;38.994;2022-10-31T01:23:48;5.53;;;4.00;;
50683;SDS011;36654;45.042;38.994;2022-10-31T01:26:19;4.13;;;3.55;;
50683;SDS011;36654;45.042;38.994;2022-10-31T01:28:51;3.83;;;3.33;;
50683;SDS011;36654;45.042;38.994;2022-10-31T01:31:21;4.03;;;3.35;;
50683;SDS011;36654;45.042;38.994;2022-10-31T01:33:49;5.53;;;3.70;;
50683;SDS011;36654;45.042;38.994;2022-10-31T01:36:19;4.03;;;3.45;;
50683;SDS011;36654;45.042;38.994;2022-10-31T01:38:48;4.00;;;3.30;;
50683;SDS011;36654;45.042;38.994;2022-10-31T01:41:16;4.10;;;3.40;;
50683;SDS011;36654;45.042;38.994;2022-10-31T01:43:48;4.57;;;3.20;;
50683;SDS011;36654;45.042;38.994;2022-10-31T01:48:50;3.28;;;2.70;;
50683;SDS011;36654;45.042;38.994;2022-10-31T01:51:18;3.10;;;2.80;;
50683;SDS011;36654;45.042;38.994;2022-10-31T01:53:48;3.92;;;3.35;;
50683;SDS011;36654;45.042;38.994;2022-10-31T01:56:16;5.13;;;4.05;;
50683;SDS011;36654;45.042;38.994;2022-10-31T01:58:43;5.22;;;3.33;;
50683;SDS011;36654;45.042;38.994;2022-10-31T02:01:11;6.25;;;3.83;;
50683;SDS011;36654;45.042;38.994;2022-10-31T02:03:39;6.32;;;4.03;;
50683;SDS011;36654;45.042;38.994;2022-10-31T02:06:06;5.07;;;3.90;;
50683;SDS011;36654;45.042;38.994;2022-10-31T02:08:42;5.50;;;4.32;;
50683;SDS011;36654;45.042;38.994;2022-10-31T02:11:08;6.60;;;3.85;;
50683;SDS011;36654;45.042;38.994;2022-10-31T02:13:34;4.80;;;3.65;;
50683;SDS011;36654;45.042;38.994;2022-10-31T02:16:00;4.28;;;3.55;;
50683;SDS011;36654;45.042;38.994;2022-10-31T02:18:26;4.32;;;3.53;;
50683;SDS011;36654;45.042;38.994;2022-10-31T02:24:00;6.07;;;3.40;;
50683;SDS011;36654;45.042;38.994;2022-10-31T02:31:55;6.65;;;3.92;;
50683;SDS011;36654;45.042;38.994;2022-10-31T02:37:37;6.70;;;3.70;;
50683;SDS011;36654;45.042;38.994;2022-10-31T02:40:14;8.02;;;3.90;;
50683;SDS011;36654;45.042;38.994;2022-10-31T02:42:59;5.97;;;3.75;;
50683;SDS011;36654;45.042;38.994;2022-10-31T02:48:08;5.15;;;3.78;;
50683;SDS011;36654;45.042;38.994;2022-10-31T02:50:39;6.00;;;3.30;;
50683;SDS011;36654;45.042;38.994;2022-10-31T02:53:08;7.00;;;4.00;;
50683;SDS011;36654;45.042;38.994;2022-10-31T03:00:25;6.45;;;3.25;;
50683;SDS011;36654;45.042;38.994;2022-10-31T03:02:56;4.18;;;3.63;;
50683;SDS011;36654;45.042;38.994;2022-10-31T03:06:03;4.78;;;3.67;;
50683;SDS011;36654;45.042;38.994;2022-10-31T03:11:45;4.93;;;3.00;;
50683;SDS011;36654;45.042;38.994;2022-10-31T03:14:54;3.42;;;2.88;;
50683;SDS011;36654;45.042;38.994;2022-10-31T03:17:53;3.92;;;3.20;;
50683;SDS011;36654;45.042;38.994;2022-10-31T03:20:21;5.75;;;2.80;;
50683;SDS011;36654;45.042;38.994;2022-10-31T03:22:51;3.28;;;2.63;;
50683;SDS011;36654;45.042;38.994;2022-10-31T03:25:19;6.53;;;3.03;;
50683;SDS011;36654;45.042;38.994;2022-10-31T03:27:45;4.10;;;2.60;;
50683;SDS011;36654;45.042;38.994;2022-10-31T03:30:12;2.70;;;2.50;;
50683;SDS011;36654;45.042;38.994;2022-10-31T03:32:40;3.70;;;2.70;;
50683;SDS011;36654;45.042;38.994;2022-10-31T03:35:10;4.30;;;2.17;;
50683;SDS011;36654;45.042;38.994;2022-10-31T03:37:38;3.80;;;2.30;;
50683;SDS011;36654;45.042;38.994;2022-10-31T03:40:06;3.58;;;2.38;;
50683;SDS011;36654;45.042;38.994;2022-10-31T03:42:34;2.83;;;2.33;;
50683;SDS011;36654;45.042;38.994;2022-10-31T03:45:06;3.83;;;2.50;;
50683;SDS011;36654;45.042;38.994;2022-10-31T03:47:38;2.55;;;2.30;;
50683;SDS011;36654;45.042;38.994;2022-10-31T03:50:05;5.22;;;2.53;;
50683;SDS011;36654;45.042;38.994;2022-10-31T03:52:35;3.83;;;2.53;;
50683;SDS011;36654;45.042;38.994;2022-10-31T03:57:43;6.93;;;2.50;;
50683;SDS011;36654;45.042;38.994;2022-10-31T04:00:16;5.63;;;2.63;;
50683;SDS011;36654;45.042;38.994;2022-10-31T04:03:05;6.65;;;2.30;;
50683;SDS011;36654;45.042;38.994;2022-10-31T04:05:32;6.38;;;2.40;;
50683;SDS011;36654;45.042;38.994;2022-10-31T04:08:00;5.05;;;2.50;;
50683;SDS011;36654;45.042;38.994;2022-10-31T04:10:29;4.78;;;2.35;;
50683;SDS011;36654;45.042;38.994;2022-10-31T04:12:58;5.63;;;2.60;;
50683;SDS011;36654;45.042;38.994;2022-10-31T04:15:28;7.40;;;2.80;;
50683;SDS011;36654;45.042;38.994;2022-10-31T04:17:57;5.38;;;2.47;;
50683;SDS011;36654;45.042;38.994;2022-10-31T04:20:34;5.93;;;2.78;;
50683;SDS011;36654;45.042;38.994;2022-10-31T04:23:02;6.18;;;2.28;;
50683;SDS011;36654;45.042;38.994;2022-10-31T04:25:29;3.63;;;2.78;;
50683;SDS011;36654;45.042;38.994;2022-10-31T04:27:54;4.18;;;2.70;;
50683;SDS011;36654;45.042;38.994;2022-10-31T04:30:20;4.40;;;2.83;;
50683;SDS011;36654;45.042;38.994;2022-10-31T04:32:46;5.03;;;2.30;;
50683;SDS011;36654;45.042;38.994;2022-10-31T04:35:12;6.55;;;2.95;;
50683;SDS011;36654;45.042;38.994;2022-10-31T04:37:38;9.93;;;4.35;;
50683;SDS011;36654;45.042;38.994;2022-10-31T04:40:04;3.83;;;2.75;;
50683;SDS011;36654;45.042;38.994;2022-10-31T04:42:30;6.60;;;2.38;;
50683;SDS011;36654;45.042;38.994;2022-10-31T04:44:56;6.68;;;3.00;;
50683;SDS011;36654;45.042;38.994;2022-10-31T04:47:21;5.88;;;2.50;;
50683;SDS011;36654;45.042;38.994;2022-10-31T04:49:47;7.47;;;2.88;;
50683;SDS011;36654;45.042;38.994;2022-10-31T04:52:12;3.72;;;2.38;;
50683;SDS011;36654;45.042;38.994;2022-10-31T04:54:38;6.75;;;2.75;;
50683;SDS011;36654;45.042;38.994;2022-10-31T04:57:04;3.55;;;2.30;;
50683;SDS011;36654;45.042;38.994;2022-10-31T04:59:29;3.20;;;2.40;;
50683;SDS011;36654;45.042;38.994;2022-10-31T05:01:55;6.68;;;2.45;;
50683;SDS011;36654;45.042;38.994;2022-10-31T05:04:21;3.88;;;2.30;;
50683;SDS011;36654;45.042;38.994;2022-10-31T05:06:46;6.50;;;2.30;;
50683;SDS011;36654;45.042;38.994;2022-10-31T05:09:12;3.65;;;2.00;;
50683;SDS011;36654;45.042;38.994;2022-10-31T05:11:38;4.03;;;2.45;;
50683;SDS011;36654;45.042;38.994;2022-10-31T05:14:03;3.70;;;2.50;;
50683;SDS011;36654;45.042;38.994;2022-10-31T05:16:29;3.05;;;1.98;;
50683;SDS011;36654;45.042;38.994;2022-10-31T05:18:55;2.85;;;2.25;;
50683;SDS011;36654;45.042;38.994;2022-10-31T05:21:20;4.38;;;2.05;;
50683;SDS011;36654;45.042;38.994;2022-10-31T05:23:46;2.33;;;2.00;;
50683;SDS011;36654;45.042;38.994;2022-10-31T05:26:11;5.55;;;2.03;;
50683;SDS011;36654;45.042;38.994;2022-10-31T05:28:37;3.78;;;1.75;;
50683;SDS011;36654;45.042;38.994;2022-10-31T05:31:03;5.38;;;2.08;;
50683;SDS011;36654;45.042;38.994;2022-10-31T05:33:28;1.95;;;1.70;;
50683;SDS011;36654;45.042;38.994;2022-10-31T05:35:56;2.15;;;1.90;;
50683;SDS011;36654;45.042;38.994;2022-10-31T05:38:22;2.92;;;1.67;;
50683;SDS011;36654;45.042;38.994;2022-10-31T05:40:47;4.25;;;1.60;;
50683;SDS011;36654;45.042;38.994;2022-10-31T05:43:13;2.15;;;1.70;;
50683;SDS011;36654;45.042;38.994;2022-10-31T05:45:39;3.45;;;2.10;;
50683;SDS011;36654;45.042;38.994;2022-10-31T05:48:04;3.00;;;1.80;;
50683;SDS011;36654;45.042;38.994;2022-10-31T05:50:30;3.28;;;1.80;;
50683;SDS011;36654;45.042;38.994;2022-10-31T05:52:59;6.60;;;2.28;;
50683;SDS011;36654;45.042;38.994;2022-10-31T05:55:27;5.57;;;2.05;;
50683;SDS011;36654;45.042;38.994;2022-10-31T05:57:54;5.43;;;2.15;;
50683;SDS011;36654;45.042;38.994;2022-10-31T06:00:20;5.53;;;1.95;;
50683;SDS011;36654;45.042;38.994;2022-10-31T06:02:47;4.85;;;2.05;;
50683;SDS011;36654;45.042;38.994;2022-10-31T06:05:13;4.47;;;2.25;;
50683;SDS011;36654;45.042;38.994;2022-10-31T06:07:39;2.50;;;2.28;;
50683;SDS011;36654;45.042;38.994;2022-10-31T06:10:06;2.95;;;2.08;;
50683;SDS011;36654;45.042;38.994;2022-10-31T06:12:32;2.38;;;2.10;;
50683;SDS011;36654;45.042;38.994;2022-10-31T06:15:05;2.90;;;2.20;;
50683;SDS011;36654;45.042;38.994;2022-10-31T06:17:32;2.22;;;1.90;;
50683;SDS011;36654;45.042;38.994;2022-10-31T06:19:59;5.95;;;2.28;;
50683;SDS011;36654;45.042;38.994;2022-10-31T06:22:24;4.07;;;2.15;;
50683;SDS011;36654;45.042;38.994;2022-10-31T06:24:50;3.67;;;2.08;;
50683;SDS011;36654;45.042;38.994;2022-10-31T06:27:15;2.05;;;1.95;;
50683;SDS011;36654;45.042;38.994;2022-10-31T06:29:41;2.53;;;1.92;;
50683;SDS011;36654;45.042;38.994;2022-10-31T06:32:09;2.65;;;2.20;;
50683;SDS011;36654;45.042;38.994;2022-10-31T06:37:01;2.83;;;2.33;;
50683;SDS011;36654;45.042;38.994;2022-10-31T06:39:26;2.30;;;2.10;;
50683;SDS011;36654;45.042;38.994;2022-10-31T06:41:52;3.17;;;2.13;;
50683;SDS011;36654;45.042;38.994;2022-10-31T06:44:17;2.70;;;2.40;;
50683;SDS011;36654;45.042;38.994;2022-10-31T06:46:45;5.68;;;2.70;;
50683;SDS011;36654;45.042;38.994;2022-10-31T06:49:12;7.15;;;2.65;;
50683;SDS011;36654;45.042;38.994;2022-10-31T06:51:38;5.85;;;2.85;;
50683;SDS011;36654;45.042;38.994;2022-10-31T06:54:04;5.65;;;2.95;;
50683;SDS011;36654;45.042;38.994;2022-10-31T06:56:29;3.08;;;2.78;;
50683;SDS011;36654;45.042;38.994;2022-10-31T06:58:55;3.47;;;2.97;;
50683;SDS011;36654;45.042;38.994;2022-10-31T07:01:20;4.25;;;3.35;;
50683;SDS011;36654;45.042;38.994;2022-10-31T07:03:46;4.55;;;3.35;;
50683;SDS011;36654;45.042;38.994;2022-10-31T07:06:12;6.35;;;4.15;;
50683;SDS011;36654;45.042;38.994;2022-10-31T07:08:37;5.60;;;3.88;;
50683;SDS011;36654;45.042;38.994;2022-10-31T07:11:03;9.38;;;4.40;;
50683;SDS011;36654;45.042;38.994;2022-10-31T07:13:29;6.40;;;4.60;;
50683;SDS011;36654;45.042;38.994;2022-10-31T07:15:58;6.40;;;4.78;;
50683;SDS011;36654;45.042;38.994;2022-10-31T07:18:26;6.70;;;5.47;;
50683;SDS011;36654;45.042;38.994;2022-10-31T07:20:52;10.48;;;5.63;;
50683;SDS011;36654;45.042;38.994;2022-10-31T07:23:17;11.80;;;5.18;;
50683;SDS011;36654;45.042;38.994;2022-10-31T07:25:43;14.80;;;6.55;;
50683;SDS011;36654;45.042;38.994;2022-10-31T07:28:09;11.35;;;6.15;;
50683;SDS011;36654;45.042;38.994;2022-10-31T07:30:35;10.68;;;5.55;;
50683;SDS011;36654;45.042;38.994;2022-10-31T07:33:01;12.40;;;8.35;;
50683;SDS011;36654;45.042;38.994;2022-10-31T07:35:27;11.43;;;6.55;;
50683;SDS011;36654;45.042;38.994;2022-10-31T07:37:54;12.10;;;6.78;;
50683;SDS011;36654;45.042;38.994;2022-10-31T07:40:20;10.35;;;6.32;;
50683;SDS011;36654;45.042;38.994;2022-10-31T07:42:48;10.55;;;6.65;;
50683;SDS011;36654;45.042;38.994;2022-10-31T07:45:16;12.35;;;6.15;;
50683;SDS011;36654;45.042;38.994;2022-10-31T07:47:46;11.80;;;7.03;;
50683;SDS011;36654;45.042;38.994;2022-10-31T07:50:14;10.70;;;6.55;;
50683;SDS011;36654;45.042;38.994;2022-10-31T07:52:42;10.65;;;6.72;;
50683;SDS011;36654;45.042;38.994;2022-10-31T07:55:09;11.13;;;6.57;;
50683;SDS011;36654;45.042;38.994;2022-10-31T07:57:35;11.30;;;6.35;;
50683;SDS011;36654;45.042;38.994;2022-10-31T08:00:05;11.20;;;6.25;;
50683;SDS011;36654;45.042;38.994;2022-10-31T08:02:34;15.88;;;7.32;;
50683;SDS011;36654;45.042;38.994;2022-10-31T08:05:00;7.85;;;5.82;;
50683;SDS011;36654;45.042;38.994;2022-10-31T08:07:27;10.05;;;6.32;;
50683;SDS011;36654;45.042;38.994;2022-10-31T08:09:53;9.82;;;6.97;;
50683;SDS011;36654;45.042;38.994;2022-10-31T08:12:19;12.00;;;7.28;;
50683;SDS011;36654;45.042;38.994;2022-10-31T08:14:45;14.63;;;8.32;;
50683;SDS011;36654;45.042;38.994;2022-10-31T08:17:11;15.48;;;8.43;;
50683;SDS011;36654;45.042;38.994;2022-10-31T08:19:36;15.43;;;9.00;;
50683;SDS011;36654;45.042;38.994;2022-10-31T08:22:02;14.43;;;8.38;;
50683;SDS011;36654;45.042;38.994;2022-10-31T08:24:28;17.00;;;9.43;;
50683;SDS011;36654;45.042;38.994;2022-10-31T08:26:53;15.73;;;9.40;;
50683;SDS011;36654;45.042;38.994;2022-10-31T08:29:22;17.95;;;8.18;;
50683;SDS011;36654;45.042;38.994;2022-10-31T08:31:48;12.40;;;8.35;;
50683;SDS011;36654;45.042;38.994;2022-10-31T08:34:13;15.23;;;9.05;;
50683;SDS011;36654;45.042;38.994;2022-10-31T08:36:40;15.60;;;8.05;;
50683;SDS011;36654;45.042;38.994;2022-10-31T08:39:09;16.35;;;9.05;;
50683;SDS011;36654;45.042;38.994;2022-10-31T08:41:35;15.93;;;7.90;;
50683;SDS011;36654;45.042;38.994;2022-10-31T08:44:01;13.13;;;8.07;;
50683;SDS011;36654;45.042;38.994;2022-10-31T08:46:26;12.52;;;7.68;;
50683;SDS011;36654;45.042;38.994;2022-10-31T08:48:52;13.90;;;8.07;;
50683;SDS011;36654;45.042;38.994;2022-10-31T08:51:17;20.63;;;8.20;;
50683;SDS011;36654;45.042;38.994;2022-10-31T08:53:43;17.05;;;8.70;;
50683;SDS011;36654;45.042;38.994;2022-10-31T08:56:09;18.63;;;8.07;;
50683;SDS011;36654;45.042;38.994;2022-10-31T08:58:34;15.45;;;7.65;;
50683;SDS011;36654;45.042;38.994;2022-10-31T09:01:00;15.38;;;8.23;;
50683;SDS011;36654;45.042;38.994;2022-10-31T09:03:28;13.20;;;7.53;;
50683;SDS011;36654;45.042;38.994;2022-10-31T09:05:57;11.68;;;6.45;;
50683;SDS011;36654;45.042;38.994;2022-10-31T09:08:24;10.15;;;6.43;;
50683;SDS011;36654;45.042;38.994;2022-10-31T09:10:49;10.95;;;6.15;;
50683;SDS011;36654;45.042;38.994;2022-10-31T09:13:17;16.73;;;6.28;;
50683;SDS011;36654;45.042;38.994;2022-10-31T09:15:45;11.30;;;6.28;;
50683;SDS011;36654;45.042;38.994;2022-10-31T09:18:12;15.32;;;6.80;;
50683;SDS011;36654;45.042;38.994;2022-10-31T09:20:41;10.07;;;6.13;;
50683;SDS011;36654;45.042;38.994;2022-10-31T09:25:44;10.32;;;4.60;;
50683;SDS011;36654;45.042;38.994;2022-10-31T09:28:11;9.15;;;4.35;;
50683;SDS011;36654;45.042;38.994;2022-10-31T09:30:38;10.57;;;4.20;;
50683;SDS011;36654;45.042;38.994;2022-10-31T09:33:06;6.97;;;3.70;;
50683;SDS011;36654;45.042;38.994;2022-10-31T09:35:34;5.60;;;3.58;;
50683;SDS011;36654;45.042;38.994;2022-10-31T09:38:00;10.13;;;4.00;;
50683;SDS011;36654;45.042;38.994;2022-10-31T09:40:46;8.90;;;4.38;;
50683;SDS011;36654;45.042;38.994;2022-10-31T09:49:21;8.00;;;3.90;;
50683;SDS011;36654;45.042;38.994;2022-10-31T09:51:56;7.40;;;3.88;;
50683;SDS011;36654;45.042;38.994;2022-10-31T09:54:32;8.63;;;3.75;;
50683;SDS011;36654;45.042;38.994;2022-10-31T09:57:03;6.55;;;4.00;;
50683;SDS011;36654;45.042;38.994;2022-10-31T09:59:35;9.55;;;4.00;;
50683;SDS011;36654;45.042;38.994;2022-10-31T10:04:50;7.68;;;3.30;;
50683;SDS011;36654;45.042;38.994;2022-10-31T10:07:25;6.35;;;2.92;;
50683;SDS011;36654;45.042;38.994;2022-10-31T10:09:52;4.70;;;3.50;;
50683;SDS011;36654;45.042;38.994;2022-10-31T10:23:27;3.53;;;3.08;;
50683;SDS011;36654;45.042;38.994;2022-10-31T10:28:47;6.22;;;3.17;;
50683;SDS011;36654;45.042;38.994;2022-10-31T10:31:21;7.50;;;2.95;;
50683;SDS011;36654;45.042;38.994;2022-10-31T10:33:58;3.97;;;3.10;;
50683;SDS011;36654;45.042;38.994;2022-10-31T10:36:42;6.13;;;2.88;;
50683;SDS011;36654;45.042;38.994;2022-10-31T10:39:45;7.38;;;3.08;;
50683;SDS011;36654;45.042;38.994;2022-10-31T10:42:13;4.93;;;3.08;;
50683;SDS011;36654;45.042;38.994;2022-10-31T10:44:57;6.45;;;2.80;;
50683;SDS011;36654;45.042;38.994;2022-10-31T10:47:43;3.03;;;2.70;;
50683;SDS011;36654;45.042;38.994;2022-10-31T10:50:18;5.47;;;2.70;;
50683;SDS011;36654;45.042;38.994;2022-10-31T11:00:29;6.60;;;2.70;;
50683;SDS011;36654;45.042;38.994;2022-10-31T11:02:58;4.70;;;2.75;;
50683;SDS011;36654;45.042;38.994;2022-10-31T11:07:59;7.63;;;2.80;;
50683;SDS011;36654;45.042;38.994;2022-10-31T11:10:25;4.55;;;2.67;;
50683;SDS011;36654;45.042;38.994;2022-10-31T11:12:58;5.25;;;3.17;;
50683;SDS011;36654;45.042;38.994;2022-10-31T11:23:20;6.18;;;2.95;;
50683;SDS011;36654;45.042;38.994;2022-10-31T11:28:21;4.88;;;2.72;;
50683;SDS011;36654;45.042;38.994;2022-10-31T11:30:48;5.15;;;3.05;;
50683;SDS011;36654;45.042;38.994;2022-10-31T11:33:21;5.90;;;2.85;;
50683;SDS011;36654;45.042;38.994;2022-10-31T11:36:42;4.43;;;3.15;;
50683;SDS011;36654;45.042;38.994;2022-10-31T11:39:03;7.22;;;3.30;;
50683;SDS011;36654;45.042;38.994;2022-10-31T11:41:38;9.88;;;3.05;;
50683;SDS011;36654;45.042;38.994;2022-10-31T11:44:13;8.52;;;3.35;;
50683;SDS011;36654;45.042;38.994;2022-10-31T11:46:55;6.03;;;2.95;;
50683;SDS011;36654;45.042;38.994;2022-10-31T11:52:28;6.60;;;3.63;;
50683;SDS011;36654;45.042;38.994;2022-10-31T12:07:41;8.27;;;3.38;;
50683;SDS011;36654;45.042;38.994;2022-10-31T12:18:56;6.80;;;3.45;;
50683;SDS011;36654;45.042;38.994;2022-10-31T12:29:45;6.68;;;4.07;;
50683;SDS011;36654;45.042;38.994;2022-10-31T12:32:40;7.57;;;4.40;;
50683;SDS011;36654;45.042;38.994;2022-10-31T12:41:17;7.80;;;4.30;;
50683;SDS011;36654;45.042;38.994;2022-10-31T12:57:32;10.98;;;5.32;;
50683;SDS011;36654;45.042;38.994;2022-10-31T13:00:07;10.20;;;5.68;;
50683;SDS011;36654;45.042;38.994;2022-10-31T13:02:44;8.95;;;5.05;;
50683;SDS011;36654;45.042;38.994;2022-10-31T13:08:03;11.52;;;5.50;;
50683;SDS011;36654;45.042;38.994;2022-10-31T13:10:49;10.57;;;6.00;;
50683;SDS011;36654;45.042;38.994;2022-10-31T13:13:24;8.75;;;6.00;;
50683;SDS011;36654;45.042;38.994;2022-10-31T13:15:57;12.60;;;5.63;;
50683;SDS011;36654;45.042;38.994;2022-10-31T13:18:27;9.88;;;6.57;;
50683;SDS011;36654;45.042;38.994;2022-10-31T13:20:59;13.30;;;7.10;;
50683;SDS011;36654;45.042;38.994;2022-10-31T13:23:30;15.02;;;6.72;;
50683;SDS011;36654;45.042;38.994;2022-10-31T13:25:58;12.52;;;6.18;;
50683;SDS011;36654;45.042;38.994;2022-10-31T13:28:40;8.95;;;5.03;;
50683;SDS011;36654;45.042;38.994;2022-10-31T13:31:07;11.02;;;5.05;;
50683;SDS011;36654;45.042;38.994;2022-10-31T13:33:45;9.75;;;4.80;;
50683;SDS011;36654;45.042;38.994;2022-10-31T13:36:24;8.95;;;4.38;;
50683;SDS011;36654;45.042;38.994;2022-10-31T13:39:54;10.32;;;3.83;;
50683;SDS011;36654;45.042;38.994;2022-10-31T13:42:22;8.00;;;3.72;;
50683;SDS011;36654;45.042;38.994;2022-10-31T13:45:06;5.70;;;3.50;;
50683;SDS011;36654;45.042;38.994;2022-10-31T13:47:38;6.97;;;3.75;;
50683;SDS011;36654;45.042;38.994;2022-10-31T13:50:20;11.27;;;4.07;;
50683;SDS011;36654;45.042;38.994;2022-10-31T13:52:48;8.00;;;3.67;;
50683;SDS011;36654;45.042;38.994;2022-10-31T14:03:36;7.07;;;3.15;;
50683;SDS011;36654;45.042;38.994;2022-10-31T14:06:04;5.95;;;2.95;;
50683;SDS011;36654;45.042;38.994;2022-10-31T14:08:35;7.07;;;3.88;;
50683;SDS011;36654;45.042;38.994;2022-10-31T14:11:04;10.95;;;3.58;;
50683;SDS011;36654;45.042;38.994;2022-10-31T14:13:35;9.95;;;3.38;;
50683;SDS011;36654;45.042;38.994;2022-10-31T14:16:17;8.15;;;3.65;;
50683;SDS011;36654;45.042;38.994;2022-10-31T14:18:45;9.52;;;3.25;;
50683;SDS011;36654;45.042;38.994;2022-10-31T14:23:48;7.35;;;3.35;;
50683;SDS011;36654;45.042;38.994;2022-10-31T14:26:18;9.65;;;3.60;;
50683;SDS011;36654;45.042;38.994;2022-10-31T14:28:55;6.63;;;3.78;;
50683;SDS011;36654;45.042;38.994;2022-10-31T14:31:53;7.03;;;4.00;;
50683;SDS011;36654;45.042;38.994;2022-10-31T14:34:32;9.45;;;4.07;;
50683;SDS011;36654;45.042;38.994;2022-10-31T14:42:52;9.43;;;3.95;;
50683;SDS011;36654;45.042;38.994;2022-10-31T14:51:24;8.35;;;4.05;;
50683;SDS011;36654;45.042;38.994;2022-10-31T14:54:01;9.98;;;3.63;;
50683;SDS011;36654;45.042;38.994;2022-10-31T14:56:30;7.93;;;4.00;;
50683;SDS011;36654;45.042;38.994;2022-10-31T14:59:01;9.45;;;3.95;;
50683;SDS011;36654;45.042;38.994;2022-10-31T15:01:34;6.32;;;3.38;;
50683;SDS011;36654;45.042;38.994;2022-10-31T15:04:13;9.10;;;4.10;;
50683;SDS011;36654;45.042;38.994;2022-10-31T15:06:44;9.02;;;4.60;;
50683;SDS011;36654;45.042;38.994;2022-10-31T15:09:24;7.68;;;3.92;;
50683;SDS011;36654;45.042;38.994;2022-10-31T15:11:55;13.50;;;3.85;;
50683;SDS011;36654;45.042;38.994;2022-10-31T15:14:22;11.65;;;4.53;;
50683;SDS011;36654;45.042;38.994;2022-10-31T15:16:50;8.45;;;4.38;;
50683;SDS011;36654;45.042;38.994;2022-10-31T15:19:18;8.43;;;4.20;;
50683;SDS011;36654;45.042;38.994;2022-10-31T15:21:47;9.68;;;4.75;;
50683;SDS011;36654;45.042;38.994;2022-10-31T15:24:16;9.60;;;4.85;;
50683;SDS011;36654;45.042;38.994;2022-10-31T15:26:50;9.43;;;4.43;;
50683;SDS011;36654;45.042;38.994;2022-10-31T15:29:19;9.15;;;4.50;;
50683;SDS011;36654;45.042;38.994;2022-10-31T15:31:57;13.73;;;4.63;;
50683;SDS011;36654;45.042;38.994;2022-10-31T15:34:35;5.60;;;4.35;;
50683;SDS011;36654;45.042;38.994;2022-10-31T15:37:04;7.85;;;3.38;;
50683;SDS011;36654;45.042;38.994;2022-10-31T15:39:30;6.10;;;4.20;;
50683;SDS011;36654;45.042;38.994;2022-10-31T15:41:57;5.78;;;3.83;;
50683;SDS011;36654;45.042;38.994;2022-10-31T15:44:25;4.32;;;3.63;;
50683;SDS011;36654;45.042;38.994;2022-10-31T15:47:01;4.20;;;3.40;;
50683;SDS011;36654;45.042;38.994;2022-10-31T15:49:33;5.53;;;4.00;;
50683;SDS011;36654;45.042;38.994;2022-10-31T15:52:03;4.10;;;3.70;;
50683;SDS011;36654;45.042;38.994;2022-10-31T15:54:51;6.75;;;3.85;;
50683;SDS011;36654;45.042;38.994;2022-10-31T15:57:25;7.50;;;4.25;;
50683;SDS011;36654;45.042;38.994;2022-10-31T15:59:51;11.05;;;4.43;;
50683;SDS011;36654;45.042;38.994;2022-10-31T16:02:22;6.05;;;4.13;;
50683;SDS011;36654;45.042;38.994;2022-10-31T16:04:56;7.28;;;4.65;;
50683;SDS011;36654;45.042;38.994;2022-10-31T16:07:24;8.10;;;4.25;;
50683;SDS011;36654;45.042;38.994;2022-10-31T16:10:00;7.95;;;4.55;;
50683;SDS011;36654;45.042;38.994;2022-10-31T16:12:33;7.43;;;4.22;;
50683;SDS011;36654;45.042;38.994;2022-10-31T16:15:00;7.47;;;4.70;;
50683;SDS011;36654;45.042;38.994;2022-10-31T16:17:27;9.13;;;5.05;;
50683;SDS011;36654;45.042;38.994;2022-10-31T16:19:57;8.85;;;4.57;;
50683;SDS011;36654;45.042;38.994;2022-10-31T16:22:33;10.70;;;5.15;;
50683;SDS011;36654;45.042;38.994;2022-10-31T16:25:10;8.43;;;4.80;;
50683;SDS011;36654;45.042;38.994;2022-10-31T16:27:39;9.82;;;4.00;;
50683;SDS011;36654;45.042;38.994;2022-10-31T16:33:03;8.82;;;4.80;;
50683;SDS011;36654;45.042;38.994;2022-10-31T16:35:34;7.90;;;4.05;;
50683;SDS011;36654;45.042;38.994;2022-10-31T16:38:04;8.27;;;4.80;;
50683;SDS011;36654;45.042;38.994;2022-10-31T16:40:30;5.35;;;4.28;;
50683;SDS011;36654;45.042;38.994;2022-10-31T16:42:57;11.10;;;5.25;;
50683;SDS011;36654;45.042;38.994;2022-10-31T16:45:25;12.38;;;5.53;;
50683;SDS011;36654;45.042;38.994;2022-10-31T16:47:55;9.45;;;5.63;;
50683;SDS011;36654;45.042;38.994;2022-10-31T16:50:30;7.95;;;5.13;;
50683;SDS011;36654;45.042;38.994;2022-10-31T16:52:56;8.80;;;5.95;;
50683;SDS011;36654;45.042;38.994;2022-10-31T16:55:21;13.00;;;5.22;;
50683;SDS011;36654;45.042;38.994;2022-10-31T16:57:55;7.60;;;4.53;;
50683;SDS011;36654;45.042;38.994;2022-10-31T17:00:23;11.05;;;5.32;;
50683;SDS011;36654;45.042;38.994;2022-10-31T17:02:50;7.50;;;4.32;;
50683;SDS011;36654;45.042;38.994;2022-10-31T17:05:19;6.53;;;3.95;;
50683;SDS011;36654;45.042;38.994;2022-10-31T17:07:46;7.30;;;4.72;;
50683;SDS011;36654;45.042;38.994;2022-10-31T17:10:13;11.45;;;6.25;;
50683;SDS011;36654;45.042;38.994;2022-10-31T17:12:43;15.20;;;4.85;;
50683;SDS011;36654;45.042;38.994;2022-10-31T17:15:16;7.32;;;3.20;;
50683;SDS011;36654;45.042;38.994;2022-10-31T17:17:46;4.78;;;3.28;;
50683;SDS011;36654;45.042;38.994;2022-10-31T17:20:16;7.15;;;2.80;;
50683;SDS011;36654;45.042;38.994;2022-10-31T17:22:47;5.40;;;3.42;;